MSC Vanessa — HOWD — position and weather

sailwx.info

Track history (hours):
 
Tides and Currents Weather Stations Pressure Air Temp Water Temp Dewpoint Dewpoint Depression Visibility Wind Speed Wind Dir Waves Ship Positions

MSC Vanessa

Last reported at 2014-Sep-03 01:32 UTC. Time now 2014-Sep-03 02:33 UTC.
Position N 40°41' W 074°09'.

Length 300 m; draft 11 m.

Type: Ship (hazmat cat A). MMSI: 356946000.

Date/timePositionNaut miles runAvg speedWind from/ knotsBaromVisibWave heightAir tempDewpointWater temp
2014-Sep-03 01:32N 40°41' W 074°09'0 0.0
2014-Sep-03 00:29N 40°41' W 074°09'0 0.0
2014-Sep-02 23:05N 40°41' W 074°09'0 0.0
2014-Sep-02 22:32N 40°41' W 074°09'0 0.0
2014-Sep-02 21:29N 40°41' W 074°09'0 0.0
2014-Sep-02 20:32N 40°41' W 074°09'0 0.0
2014-Sep-02 19:32N 40°41' W 074°09'0 0.0
2014-Sep-02 18:32N 40°41' W 074°09'0 0.0
2014-Sep-02 17:32N 40°41' W 074°09'0 0.0
2014-Sep-02 16:32N 40°41' W 074°09'0 0.0
2014-Sep-02 15:29N 40°41' W 074°09'0 0.0
2014-Sep-02 14:32N 40°41' W 074°09'0 0.0
2014-Sep-02 13:32N 40°41' W 074°09'0 0.0
2014-Sep-02 12:29N 40°41' W 074°09'0 0.0
2014-Sep-02 11:32N 40°41' W 074°09'1 1.2
2014-Sep-02 10:33N 40°40' W 074°08'5 4.6
2014-Sep-02 09:33N 40°38' W 074°03'9 8.7
2014-Sep-02 08:33N 40°30' W 073°57'9 9.5
2014-Sep-02 07:33N 40°24' W 073°48'9 9.4
2014-Sep-02 06:34N 40°15' W 073°45'1010.0
2014-Sep-02 05:32N 40°05' W 073°44'1111.3
2014-Sep-02 04:33N 39°54' W 073°42'1212.3
2014-Sep-02 03:33N 39°42' W 073°40'1313.2
2014-Sep-02 02:33N 39°29' W 073°40'1313.2
2014-Sep-02 01:33N 39°15' W 073°40'1413.5
2014-Sep-02 00:30N 39°01' W 073°40'1313.6
2014-Sep-01 23:33N 38°49' W 073°42'1413.9
2014-Sep-01 22:33N 38°35' W 073°43'19 9.0
2014-Sep-01 20:24N 38°15' W 073°44'0 0.3
2014-Sep-01 19:33N 38°15' W 073°44'0 0.5
2014-Sep-01 18:33N 38°15' W 073°45'3 0.6
2014-Sep-01 13:10N 38°13' W 073°48'0 0.2
2014-Sep-01 12:28N 38°13' W 073°48'0 0.3
2014-Sep-01 11:33N 38°13' W 073°48'1 0.7
2014-Sep-01 10:30N 38°13' W 073°49'10 1.7
2014-Sep-01 04:17N 38°06' W 073°59'3 1.7
2014-Sep-01 02:26N 38°03' W 073°59'3 3.9
2014-Sep-01 01:33N 38°02' W 074°03'1212.2
2014-Sep-01 00:33N 37°53' W 074°13'1414.1
2014-Aug-31 23:33N 37°40' W 074°19'1414.1
2014-Aug-31 22:32N 37°26' W 074°24'4012.2
2014-Aug-31 19:13N 36°57' W 074°60'913.4
2014-Aug-31 18:33N 36°55' W 075°11'1313.4
2014-Aug-31 17:33N 36°51' W 075°27'1313.1
2014-Aug-31 16:33N 36°49' W 075°43'1212.2
2014-Aug-31 15:33N 36°55' W 075°56'1313.3
2014-Aug-31 14:33N 36°60' W 076°12'10 8.7
2014-Aug-31 13:26N 36°53' W 076°20'1 0.7
2014-Aug-31 12:19N 36°52' W 076°21'0 0.0
2014-Aug-31 11:25N 36°52' W 076°21'0 0.0
2014-Aug-31 09:25N 36°52' W 076°21'0 0.0
2014-Aug-31 08:28N 36°52' W 076°21'0 0.0
2014-Aug-31 07:31N 36°52' W 076°21'0 0.0
2014-Aug-31 05:19N 36°52' W 076°21'0 0.0
2014-Aug-31 04:31N 36°52' W 076°21'3 3.5
2014-Aug-31 03:31N 36°56' W 076°20'1110.7
2014-Aug-31 02:27N 36°58' W 076°06'1514.8
2014-Aug-31 01:25N 36°51' W 075°49'1011.5
2014-Aug-31 00:33N 36°48' W 075°38'1 0.9
2014-Aug-30 23:28N 36°48' W 075°39'4 4.4
2014-Aug-30 22:33N 36°49' W 075°44'117 8.3
2014-Aug-30 08:30N 34°55' W 075°11'30 2.3
2014-Aug-29 19:23N 34°27' W 075°22'2 2.0
2014-Aug-29 18:11N 34°25' W 075°23'1 2.2
2014-Aug-29 17:31N 34°23' W 075°24'3 3.1
2014-Aug-29 16:26N 34°20' W 075°26'1212.6
2014-Aug-29 15:30N 34°13' W 075°37'1516.2
2014-Aug-29 14:34N 34°01' W 075°49'1816.5
2014-Aug-29 13:28N 33°47' W 076°03'1516.5
2014-Aug-29 12:33N 33°36' W 076°14'40115.4
2014-Aug-28 10:33N 27°28' W 079°19'2118.3
2014-Aug-28 09:24N 27°07' W 079°24'1717.2
2014-Aug-28 08:26N 26°52' W 079°18'3416.2
2014-Aug-28 06:19N 26°26' W 078°53'  
Track history (hours):
 
Tides and Currents Weather Stations Pressure Air Temp Water Temp Dewpoint Dewpoint Depression Visibility Wind Speed Wind Dir Waves Ship Positions

MSC Vanessa

Last reported at 2014-Sep-03 01:32 UTC. Time now 2014-Sep-03 02:33 UTC.
Position N 40°41' W 074°09'.

Length 300 m; draft 11 m.

Type: Ship (hazmat cat A). MMSI: 356946000.

Date/timePositionNaut miles runAvg speedWind from/ knotsBaromVisibWave heightAir tempDewpointWater temp
2014-Sep-03 01:32N 40°41' W 074°09'0 0.0
2014-Sep-03 00:29N 40°41' W 074°09'0 0.0
2014-Sep-02 23:05N 40°41' W 074°09'0 0.0
2014-Sep-02 22:32N 40°41' W 074°09'0 0.0
2014-Sep-02 21:29N 40°41' W 074°09'0 0.0
2014-Sep-02 20:32N 40°41' W 074°09'0 0.0
2014-Sep-02 19:32N 40°41' W 074°09'0 0.0
2014-Sep-02 18:32N 40°41' W 074°09'0 0.0
2014-Sep-02 17:32N 40°41' W 074°09'0 0.0
2014-Sep-02 16:32N 40°41' W 074°09'0 0.0
2014-Sep-02 15:29N 40°41' W 074°09'0 0.0
2014-Sep-02 14:32N 40°41' W 074°09'0 0.0
2014-Sep-02 13:32N 40°41' W 074°09'0 0.0
2014-Sep-02 12:29N 40°41' W 074°09'0 0.0
2014-Sep-02 11:32N 40°41' W 074°09'1 1.2
2014-Sep-02 10:33N 40°40' W 074°08'5 4.6
2014-Sep-02 09:33N 40°38' W 074°03'9 8.7
2014-Sep-02 08:33N 40°30' W 073°57'9 9.5
2014-Sep-02 07:33N 40°24' W 073°48'9 9.4
2014-Sep-02 06:34N 40°15' W 073°45'1010.0
2014-Sep-02 05:32N 40°05' W 073°44'1111.3
2014-Sep-02 04:33N 39°54' W 073°42'1212.3
2014-Sep-02 03:33N 39°42' W 073°40'1313.2
2014-Sep-02 02:33N 39°29' W 073°40'1313.2
2014-Sep-02 01:33N 39°15' W 073°40'1413.5
2014-Sep-02 00:30N 39°01' W 073°40'1313.6
2014-Sep-01 23:33N 38°49' W 073°42'1413.9
2014-Sep-01 22:33N 38°35' W 073°43'19 9.0
2014-Sep-01 20:24N 38°15' W 073°44'0 0.3
2014-Sep-01 19:33N 38°15' W 073°44'0 0.5
2014-Sep-01 18:33N 38°15' W 073°45'3 0.6
2014-Sep-01 13:10N 38°13' W 073°48'0 0.2
2014-Sep-01 12:28N 38°13' W 073°48'0 0.3
2014-Sep-01 11:33N 38°13' W 073°48'1 0.7
2014-Sep-01 10:30N 38°13' W 073°49'10 1.7
2014-Sep-01 04:17N 38°06' W 073°59'3 1.7
2014-Sep-01 02:26N 38°03' W 073°59'3 3.9
2014-Sep-01 01:33N 38°02' W 074°03'1212.2
2014-Sep-01 00:33N 37°53' W 074°13'1414.1
2014-Aug-31 23:33N 37°40' W 074°19'1414.1
2014-Aug-31 22:32N 37°26' W 074°24'4012.2
2014-Aug-31 19:13N 36°57' W 074°60'913.4
2014-Aug-31 18:33N 36°55' W 075°11'1313.4
2014-Aug-31 17:33N 36°51' W 075°27'1313.1
2014-Aug-31 16:33N 36°49' W 075°43'1212.2
2014-Aug-31 15:33N 36°55' W 075°56'1313.3
2014-Aug-31 14:33N 36°60' W 076°12'10 8.7
2014-Aug-31 13:26N 36°53' W 076°20'1 0.7
2014-Aug-31 12:19N 36°52' W 076°21'0 0.0
2014-Aug-31 11:25N 36°52' W 076°21'0 0.0
2014-Aug-31 09:25N 36°52' W 076°21'0 0.0
2014-Aug-31 08:28N 36°52' W 076°21'0 0.0
2014-Aug-31 07:31N 36°52' W 076°21'0 0.0
2014-Aug-31 05:19N 36°52' W 076°21'0 0.0
2014-Aug-31 04:31N 36°52' W 076°21'3 3.5
2014-Aug-31 03:31N 36°56' W 076°20'1110.7
2014-Aug-31 02:27N 36°58' W 076°06'1514.8
2014-Aug-31 01:25N 36°51' W 075°49'1011.5
2014-Aug-31 00:33N 36°48' W 075°38'1 0.9
2014-Aug-30 23:28N 36°48' W 075°39'4 4.4
2014-Aug-30 22:33N 36°49' W 075°44'117 8.3
2014-Aug-30 08:30N 34°55' W 075°11'30 2.3
2014-Aug-29 19:23N 34°27' W 075°22'2 2.0
2014-Aug-29 18:11N 34°25' W 075°23'1 2.2
2014-Aug-29 17:31N 34°23' W 075°24'3 3.1
2014-Aug-29 16:26N 34°20' W 075°26'1212.6
2014-Aug-29 15:30N 34°13' W 075°37'1516.2
2014-Aug-29 14:34N 34°01' W 075°49'1816.5
2014-Aug-29 13:28N 33°47' W 076°03'1516.5
2014-Aug-29 12:33N 33°36' W 076°14'40115.4
2014-Aug-28 10:33N 27°28' W 079°19'2118.3
2014-Aug-28 09:24N 27°07' W 079°24'1717.2
2014-Aug-28 08:26N 26°52' W 079°18'3416.2
2014-Aug-28 06:19N 26°26' W 078°53'  

Dump ship's entire track history